createdAt,value
2022-11-16T00:00:27.410Z,60.78
2022-11-16T00:01:02.188Z,60.03
2022-11-16T00:01:34.375Z,59.67
2022-11-16T00:02:06.614Z,61.13
2022-11-16T00:02:38.687Z,59.88
2022-11-16T00:03:10.656Z,59.47
2022-11-16T00:03:43.221Z,59.92
2022-11-16T00:04:15.205Z,59.58
2022-11-16T00:04:47.148Z,55.15
2022-11-16T00:05:21.161Z,57.95
2022-11-16T00:06:01.607Z,63.67
2022-11-16T00:06:33.828Z,71.87
2022-11-16T00:07:06.285Z,63.13
2022-11-16T00:07:38.367Z,57.47
2022-11-16T00:08:10.322Z,64.57
2022-11-16T00:09:07.902Z,68.22
2022-11-16T00:09:39.839Z,59.22
2022-11-16T00:10:12.571Z,67.87
2022-11-16T00:10:44.381Z,63.20
2022-11-16T00:11:20.248Z,62.38
2022-11-16T00:12:07.136Z,65.85
2022-11-16T00:12:39.812Z,58.75
2022-11-16T00:13:11.633Z,55.90
2022-11-16T00:13:44.345Z,62.62
2022-11-16T00:14:16.247Z,55.15
2022-11-16T00:14:48.169Z,61.30
2022-11-16T00:15:20.005Z,63.47
2022-11-16T00:15:56.423Z,57.85
2022-11-16T00:16:28.380Z,62.25
2022-11-16T00:17:01.008Z,63.10
2022-11-16T00:17:33.300Z,62.20
2022-11-16T00:18:05.171Z,63.08
2022-11-16T00:18:37.010Z,59.60
2022-11-16T00:19:11.322Z,60.30
2022-11-16T00:19:43.206Z,65.55
2022-11-16T00:20:15.398Z,58.45
2022-11-16T00:20:47.240Z,55.75
2022-11-16T00:21:19.079Z,61.55
2022-11-16T00:21:51.127Z,60.60
2022-11-16T00:22:23.258Z,65.25
2022-11-16T00:22:55.119Z,59.03
2022-11-16T00:23:26.981Z,66.20
2022-11-16T00:23:59.385Z,62.50
2022-11-16T00:24:31.238Z,67.70
2022-11-16T00:25:03.081Z,64.80
2022-11-16T00:25:34.970Z,69.20
2022-11-16T00:26:08.375Z,61.50
2022-11-16T00:26:40.952Z,65.60
2022-11-16T00:27:12.939Z,61.15
2022-11-16T00:27:45.070Z,63.33
2022-11-16T00:28:17.356Z,63.17
2022-11-16T00:28:50.246Z,62.45
2022-11-16T00:29:26.455Z,62.83
2022-11-16T00:29:58.323Z,56.15
2022-11-16T00:30:30.196Z,64.75
2022-11-16T00:31:04.718Z,65.57
2022-11-16T00:31:36.604Z,66.95
2022-11-16T00:32:09.126Z,62.33
2022-11-16T00:32:41.025Z,63.65
2022-11-16T00:33:16.297Z,68.43
2022-11-16T00:33:48.630Z,69.05
2022-11-16T00:34:21.404Z,65.55
2022-11-16T00:34:53.246Z,61.88
2022-11-16T00:35:25.113Z,62.22
2022-11-16T00:35:57.409Z,63.28
2022-11-16T00:36:29.296Z,65.00
2022-11-16T00:37:01.306Z,61.15
2022-11-16T00:37:33.218Z,69.00
2022-11-16T00:38:05.468Z,59.95
2022-11-16T00:38:38.532Z,67.53
2022-11-16T00:39:12.895Z,64.10
2022-11-16T00:39:44.735Z,60.67
2022-11-16T00:40:17.355Z,66.30
2022-11-16T00:40:49.711Z,57.10
2022-11-16T00:41:21.678Z,59.70
2022-11-16T00:41:53.548Z,62.15
2022-11-16T00:42:25.473Z,60.28
2022-11-16T00:42:57.433Z,67.90
2022-11-16T00:43:29.716Z,61.92
2022-11-16T00:44:01.977Z,62.38
2022-11-16T00:44:33.839Z,63.00
2022-11-16T00:45:06.011Z,63.95
2022-11-16T00:45:39.735Z,60.97
2022-11-16T00:46:11.659Z,59.80
2022-11-16T00:46:43.550Z,62.35
2022-11-16T00:47:15.429Z,64.35
2022-11-16T00:47:47.366Z,61.63
2022-11-16T00:48:19.515Z,63.03
2022-11-16T00:48:51.401Z,70.93
2022-11-16T00:49:23.553Z,66.37
2022-11-16T00:49:55.400Z,65.97
2022-11-16T00:50:27.365Z,63.25
2022-11-16T00:50:59.401Z,62.58
2022-11-16T00:51:31.804Z,61.33
2022-11-16T00:52:03.856Z,71.90
2022-11-16T00:52:35.991Z,75.65
2022-11-16T00:53:08.240Z,67.32
2022-11-16T00:53:40.155Z,65.80
2022-11-16T00:54:12.321Z,68.43
2022-11-16T00:54:44.687Z,61.37
2022-11-16T00:55:17.211Z,65.90
2022-11-16T00:55:49.418Z,65.70
2022-11-16T00:56:21.816Z,65.32
2022-11-16T00:56:53.692Z,66.97
2022-11-16T00:57:25.587Z,65.25
2022-11-16T00:57:57.588Z,61.13
2022-11-16T00:58:30.067Z,70.43
2022-11-16T00:59:03.116Z,68.12
2022-11-16T00:59:35.023Z,67.40
2022-11-16T01:00:09.204Z,65.05
2022-11-16T01:00:41.864Z,68.18
2022-11-16T01:01:14.314Z,67.70
2022-11-16T01:01:46.235Z,60.50
2022-11-16T01:02:18.153Z,69.75
2022-11-16T01:02:50.047Z,70.32
2022-11-16T01:03:23.109Z,64.87
2022-11-16T01:03:55.040Z,68.68
2022-11-16T01:04:26.959Z,75.80
2022-11-16T01:04:58.945Z,68.93
2022-11-16T01:05:31.298Z,69.80
2022-11-16T01:06:09.490Z,67.87
2022-11-16T01:06:41.707Z,73.70
2022-11-16T01:07:13.728Z,63.85
2022-11-16T01:07:45.903Z,63.05
2022-11-16T01:08:17.766Z,63.87
2022-11-16T01:08:49.935Z,67.15
2022-11-16T01:09:21.882Z,64.20
2022-11-16T01:09:53.724Z,70.55
2022-11-16T01:10:27.204Z,66.78
2022-11-16T01:11:18.301Z,64.93
2022-11-16T01:12:08.756Z,71.82
2022-11-16T01:12:40.692Z,66.22
2022-11-16T01:13:12.527Z,63.40
2022-11-16T01:13:44.937Z,66.55
2022-11-16T01:14:18.663Z,63.33
2022-11-16T01:14:50.562Z,64.00
2022-11-16T01:15:25.248Z,66.35
2022-11-16T01:15:57.297Z,67.60
2022-11-16T01:16:30.164Z,66.57
2022-11-16T01:17:02.050Z,65.68
2022-11-16T01:17:33.930Z,65.28
2022-11-16T01:18:05.975Z,62.03
2022-11-16T01:18:38.281Z,68.95
2022-11-16T01:19:10.470Z,68.85
2022-11-16T01:19:42.473Z,61.05
2022-11-16T01:20:19.995Z,63.10
2022-11-16T01:20:53.633Z,62.60
2022-11-16T01:21:25.743Z,63.20
2022-11-16T01:21:58.981Z,64.10
2022-11-16T01:22:30.844Z,65.22
2022-11-16T01:23:02.691Z,66.43
2022-11-16T01:23:34.666Z,65.72
2022-11-16T01:24:06.676Z,64.55
2022-11-16T01:24:38.539Z,62.15
2022-11-16T01:25:11.867Z,61.47
2022-11-16T01:25:43.786Z,65.68
2022-11-16T01:26:15.919Z,65.72
2022-11-16T01:26:48.111Z,69.97
2022-11-16T01:27:20.304Z,66.53
2022-11-16T01:27:52.219Z,63.00
2022-11-16T01:28:24.323Z,66.20
2022-11-16T01:28:58.707Z,69.55
2022-11-16T01:29:32.253Z,62.88
2022-11-16T01:30:07.172Z,63.75
2022-11-16T01:30:40.078Z,61.97
2022-11-16T01:31:12.088Z,65.62
2022-11-16T01:31:44.371Z,64.05
2022-11-16T01:32:16.230Z,57.15
2022-11-16T01:32:48.667Z,56.03
2022-11-16T01:33:20.733Z,62.00
2022-11-16T01:33:54.856Z,59.25
2022-11-16T01:34:27.025Z,63.58
2022-11-16T01:34:59.725Z,60.22
2022-11-16T01:35:32.067Z,58.72
2022-11-16T01:36:14.706Z,64.18
2022-11-16T01:36:47.461Z,59.35
2022-11-16T01:37:19.774Z,57.33
2022-11-16T01:37:52.077Z,65.50
2022-11-16T01:38:29.766Z,58.67
2022-11-16T01:39:03.381Z,62.70
2022-11-16T01:39:35.556Z,59.10
2022-11-16T01:40:08.105Z,62.83
2022-11-16T01:40:41.392Z,56.55
2022-11-16T01:41:16.463Z,58.67
2022-11-16T01:41:49.385Z,64.93
2022-11-16T01:42:28.240Z,58.25
2022-11-16T01:43:00.820Z,59.10
2022-11-16T01:43:52.554Z,58.78
2022-11-16T01:44:33.647Z,59.50
2022-11-16T01:45:22.241Z,61.60
2022-11-16T01:45:54.796Z,61.85
2022-11-16T01:46:28.685Z,56.35
2022-11-16T01:47:06.717Z,63.70
2022-11-16T01:47:38.669Z,62.67
2022-11-16T01:48:16.462Z,65.47
2022-11-16T01:48:53.093Z,61.00
2022-11-16T01:49:29.440Z,64.70
2022-11-16T01:50:10.328Z,62.17
2022-11-16T01:50:44.065Z,61.30
2022-11-16T01:51:16.589Z,60.90
2022-11-16T01:51:53.591Z,65.03
2022-11-16T01:52:31.324Z,62.50
2022-11-16T01:53:05.834Z,57.83
2022-11-16T01:53:39.445Z,58.87
2022-11-16T01:54:13.416Z,62.55
2022-11-16T01:54:50.115Z,59.90
2022-11-16T01:55:23.663Z,64.55
2022-11-16T01:55:56.358Z,61.15
2022-11-16T01:56:31.585Z,58.50
2022-11-16T01:57:07.043Z,63.72
2022-11-16T01:57:42.478Z,59.92
2022-11-16T01:58:19.423Z,65.87
2022-11-16T01:58:53.337Z,58.65
2022-11-16T01:59:26.273Z,61.80
2022-11-16T02:00:01.001Z,64.78
2022-11-16T02:00:34.104Z,63.42
2022-11-16T02:01:07.709Z,68.37
2022-11-16T02:01:40.595Z,61.70
2022-11-16T02:02:12.868Z,64.75
2022-11-16T02:02:44.990Z,59.70
2022-11-16T02:03:20.931Z,60.45
2022-11-16T02:03:53.102Z,56.85
2022-11-16T02:04:25.269Z,55.12
2022-11-16T02:04:58.863Z,62.92
2022-11-16T02:05:50.868Z,65.20
2022-11-16T02:06:50.996Z,60.55
2022-11-16T02:08:11.201Z,65.70
2022-11-16T02:09:13.754Z,66.28
2022-11-16T02:10:01.045Z,58.58
2022-11-16T02:11:14.918Z,63.65
2022-11-16T02:12:20.029Z,66.97
2022-11-16T02:13:04.106Z,69.62
2022-11-16T02:14:37.800Z,59.30
2022-11-16T02:15:24.085Z,63.95
2022-11-16T02:16:30.557Z,60.30
2022-11-16T02:17:05.537Z,63.05
2022-11-16T02:17:50.694Z,67.93
2022-11-16T02:18:44.142Z,60.75
2022-11-16T02:19:18.928Z,60.83
2022-11-16T02:20:09.494Z,61.83
2022-11-16T02:20:50.172Z,63.13
2022-11-16T02:21:42.475Z,64.05
2022-11-16T02:22:23.388Z,66.07
2022-11-16T02:23:21.276Z,69.45
2022-11-16T02:24:11.555Z,72.05
2022-11-16T02:25:25.896Z,71.43
2022-11-16T02:26:20.599Z,68.78
2022-11-16T02:27:18.593Z,73.85
2022-11-16T02:28:14.800Z,63.60
2022-11-16T02:28:46.588Z,65.30
2022-11-16T02:29:32.016Z,68.12
2022-11-16T02:30:06.009Z,69.50
2022-11-16T02:30:45.859Z,70.87
2022-11-16T02:31:26.542Z,71.15
2022-11-16T02:32:29.424Z,66.05
2022-11-16T02:33:08.919Z,74.20
2022-11-16T02:33:43.997Z,70.32
2022-11-16T02:34:19.473Z,69.05
2022-11-16T02:34:58.416Z,75.07
2022-11-16T02:35:42.657Z,69.20
2022-11-16T02:36:21.057Z,63.95
2022-11-16T02:36:56.795Z,75.82
2022-11-16T02:37:34.482Z,70.72
2022-11-16T02:38:15.765Z,66.12
2022-11-16T02:38:57.051Z,62.92
2022-11-16T02:39:31.835Z,71.53
2022-11-16T02:40:08.839Z,69.93
2022-11-16T02:40:45.618Z,73.78
2022-11-16T02:41:23.330Z,72.62
2022-11-16T02:41:57.777Z,64.20
2022-11-16T02:42:35.833Z,70.18
2022-11-16T02:43:12.228Z,66.70
2022-11-16T02:43:50.604Z,67.85
2022-11-16T02:44:29.630Z,65.70
2022-11-16T02:45:06.792Z,65.00
2022-11-16T02:45:47.665Z,69.57
2022-11-16T02:46:59.291Z,64.90
2022-11-16T02:47:35.101Z,65.00
2022-11-16T02:48:31.371Z,73.35
2022-11-16T02:49:09.728Z,63.00
2022-11-16T02:49:47.478Z,66.20
2022-11-16T02:50:23.311Z,66.45
2022-11-16T02:50:56.021Z,64.65
2022-11-16T02:51:30.299Z,66.07
2022-11-16T02:52:04.259Z,63.40
2022-11-16T02:52:37.668Z,65.30
2022-11-16T02:53:10.373Z,67.78
2022-11-16T02:54:20.145Z,62.20
2022-11-16T02:54:52.190Z,62.60
2022-11-16T02:55:25.870Z,62.97
2022-11-16T02:55:58.084Z,60.80
2022-11-16T02:56:30.326Z,61.60
2022-11-16T02:57:02.265Z,60.28
2022-11-16T02:57:44.193Z,64.07
2022-11-16T02:58:26.065Z,64.93
2022-11-16T02:58:59.529Z,59.03
2022-11-16T02:59:44.068Z,60.22
2022-11-16T03:00:21.472Z,59.92
2022-11-16T03:01:05.515Z,62.60
2022-11-16T03:01:43.374Z,61.78
2022-11-16T03:02:34.549Z,65.32
2022-11-16T03:03:22.027Z,61.30
2022-11-16T03:04:01.622Z,60.85
2022-11-16T03:04:43.545Z,64.18
2022-11-16T03:05:32.184Z,57.88
2022-11-16T03:06:11.455Z,65.78
2022-11-16T03:06:47.887Z,65.68
2022-11-16T03:07:25.780Z,58.95
2022-11-16T03:08:08.405Z,65.85
2022-11-16T03:08:52.147Z,59.72
2022-11-16T03:09:30.987Z,58.85
2022-11-16T03:10:03.520Z,66.35
2022-11-16T03:10:59.081Z,64.85
2022-11-16T03:11:53.403Z,62.72
2022-11-16T03:12:30.655Z,59.58
2022-11-16T03:13:06.769Z,52.55
2022-11-16T03:13:40.934Z,63.85
2022-11-16T03:14:16.811Z,61.00
2022-11-16T03:14:53.367Z,61.63
2022-11-16T03:15:26.168Z,60.92
2022-11-16T03:16:02.936Z,59.95
2022-11-16T03:16:43.624Z,58.70
2022-11-16T03:17:46.130Z,60.25
2022-11-16T03:18:20.408Z,59.72
2022-11-16T03:18:55.999Z,57.40
2022-11-16T03:19:59.162Z,60.12
2022-11-16T03:20:34.020Z,60.00
2022-11-16T03:21:19.091Z,62.40
2022-11-16T03:21:58.894Z,59.90
2022-11-16T03:22:39.782Z,58.38
2022-11-16T03:23:46.792Z,53.05
2022-11-16T03:24:20.411Z,53.55
2022-11-16T03:24:53.161Z,61.22
2022-11-16T03:25:30.642Z,51.20
2022-11-16T03:26:06.970Z,58.47
2022-11-16T03:26:58.221Z,55.00
2022-11-16T03:27:58.826Z,60.50
2022-11-16T03:28:52.319Z,56.35
2022-11-16T03:29:30.920Z,64.10
2022-11-16T03:30:09.708Z,51.63
2022-11-16T03:30:51.759Z,60.17
2022-11-16T03:32:25.088Z,59.70
2022-11-16T03:33:08.567Z,56.13
2022-11-16T03:33:48.346Z,58.92
2022-11-16T03:34:25.466Z,64.28
2022-11-16T03:35:10.548Z,59.10
2022-11-16T03:35:52.783Z,58.00
2022-11-16T03:36:38.711Z,68.72
2022-11-16T03:37:11.538Z,66.80
2022-11-16T03:37:45.893Z,60.00
2022-11-16T03:38:20.824Z,56.88
2022-11-16T03:38:54.377Z,58.85
2022-11-16T03:39:33.200Z,62.55
2022-11-16T03:40:09.017Z,61.10
2022-11-16T03:40:44.146Z,59.65
2022-11-16T03:41:17.090Z,59.85
2022-11-16T03:41:50.790Z,63.00
2022-11-16T03:42:26.181Z,58.22
2022-11-16T03:43:01.107Z,60.92
2022-11-16T03:43:34.678Z,61.65
2022-11-16T03:44:08.982Z,64.72
2022-11-16T03:44:42.200Z,62.67
2022-11-16T03:45:14.300Z,58.75
2022-11-16T03:45:47.361Z,63.47
2022-11-16T03:46:20.747Z,57.70
2022-11-16T03:46:52.850Z,56.90
2022-11-16T03:47:24.852Z,63.78
2022-11-16T03:47:57.469Z,62.30
2022-11-16T03:48:38.456Z,58.53
2022-11-16T03:49:46.600Z,54.03
2022-11-16T03:50:18.765Z,64.93
2022-11-16T03:50:51.660Z,58.85
2022-11-16T03:51:24.193Z,66.75
2022-11-16T03:51:57.495Z,64.72
2022-11-16T03:52:29.720Z,58.53
2022-11-16T03:53:01.555Z,65.00
2022-11-16T03:53:33.779Z,58.40
2022-11-16T03:54:06.083Z,65.70
2022-11-16T03:54:38.221Z,60.28
2022-11-16T03:55:10.137Z,60.97
2022-11-16T03:55:47.043Z,62.67
2022-11-16T03:56:21.446Z,66.68
2022-11-16T03:56:53.412Z,60.60
2022-11-16T03:57:26.718Z,56.83
2022-11-16T03:57:59.003Z,60.80
2022-11-16T03:58:31.546Z,68.30
2022-11-16T03:59:03.736Z,58.83
2022-11-16T03:59:35.630Z,62.20
2022-11-16T04:00:08.512Z,64.12
2022-11-16T04:00:45.431Z,59.13
2022-11-16T04:01:17.760Z,63.72
2022-11-16T04:01:50.049Z,65.78
2022-11-16T04:02:22.087Z,66.68
2022-11-16T04:02:54.216Z,62.50
2022-11-16T04:03:26.297Z,59.70
2022-11-16T04:03:58.309Z,57.95
2022-11-16T04:04:48.885Z,58.00
2022-11-16T04:05:39.327Z,56.25
2022-11-16T04:06:30.183Z,56.70
2022-11-16T04:07:21.378Z,58.47
2022-11-16T04:08:12.136Z,55.17
2022-11-16T04:09:02.471Z,56.40
2022-11-16T04:09:53.519Z,57.10
2022-11-16T04:10:44.232Z,51.90
2022-11-16T04:11:37.571Z,56.67
2022-11-16T04:12:28.588Z,55.10
2022-11-16T04:13:20.557Z,54.25
2022-11-16T04:14:10.938Z,49.13
2022-11-16T04:15:02.805Z,53.25
2022-11-16T04:15:53.928Z,58.60
2022-11-16T04:16:45.713Z,56.03
2022-11-16T04:17:37.730Z,57.92
2022-11-16T04:18:29.160Z,52.97
2022-11-16T04:19:19.525Z,50.65
2022-11-16T04:20:17.382Z,54.67
2022-11-16T04:21:07.881Z,47.83
2022-11-16T04:22:12.846Z,49.88
2022-11-16T04:23:12.725Z,50.65
2022-11-16T04:24:05.920Z,50.58
2022-11-16T04:24:41.232Z,53.63
2022-11-16T04:25:27.014Z,50.72
2022-11-16T04:26:00.068Z,49.97
2022-11-16T04:26:51.498Z,58.28
2022-11-16T04:28:22.519Z,51.10
2022-11-16T04:28:54.882Z,47.40
2022-11-16T04:29:27.092Z,50.65
2022-11-16T04:30:01.707Z,45.88
2022-11-16T04:30:54.379Z,46.35
2022-11-16T04:31:44.819Z,44.80
2022-11-16T04:32:35.684Z,48.87
2022-11-16T04:33:26.010Z,56.90
2022-11-16T04:34:17.048Z,44.92
2022-11-16T04:35:08.550Z,52.25
2022-11-16T04:35:58.928Z,52.55
2022-11-16T04:36:49.276Z,52.42
2022-11-16T04:37:39.902Z,50.00
2022-11-16T04:38:44.287Z,44.83
2022-11-16T04:39:16.490Z,45.17
2022-11-16T04:39:48.778Z,49.75
2022-11-16T04:40:23.528Z,47.20
2022-11-16T04:40:55.406Z,53.38
2022-11-16T04:41:48.907Z,49.70
2022-11-16T04:42:22.390Z,49.00
2022-11-16T04:42:59.410Z,53.03
2022-11-16T04:43:33.257Z,54.17
2022-11-16T04:44:05.307Z,49.15
2022-11-16T04:44:57.676Z,49.08
2022-11-16T04:45:49.129Z,53.47
2022-11-16T04:46:40.234Z,48.25
2022-11-16T04:47:12.167Z,49.63
2022-11-16T04:47:44.215Z,46.70
2022-11-16T04:48:18.785Z,52.45
2022-11-16T04:48:50.790Z,53.63
2022-11-16T04:49:22.632Z,51.22
2022-11-16T04:49:55.008Z,51.58
2022-11-16T04:50:27.038Z,49.60
2022-11-16T04:50:59.175Z,46.65
2022-11-16T04:51:31.345Z,52.65
2022-11-16T04:52:03.506Z,52.28
2022-11-16T04:52:36.301Z,48.53
2022-11-16T04:53:09.225Z,53.20
2022-11-16T04:53:41.885Z,50.33
2022-11-16T04:54:14.340Z,49.63
2022-11-16T04:54:46.602Z,53.13
2022-11-16T04:55:18.897Z,51.72
2022-11-16T04:55:51.158Z,50.30
2022-11-16T04:56:24.053Z,51.15
2022-11-16T04:56:56.290Z,49.00
2022-11-16T04:57:28.505Z,54.53
2022-11-16T04:58:01.082Z,51.50
2022-11-16T04:58:33.281Z,48.80
2022-11-16T04:59:05.628Z,51.40
2022-11-16T04:59:37.541Z,53.05
2022-11-16T05:00:10.249Z,54.47
2022-11-16T05:00:43.951Z,56.60
2022-11-16T05:01:16.131Z,51.90
2022-11-16T05:02:06.995Z,55.78
2022-11-16T05:02:39.623Z,53.70
2022-11-16T05:03:11.700Z,51.90
2022-11-16T05:03:44.175Z,51.70
2022-11-16T05:04:16.077Z,52.85
2022-11-16T05:04:48.293Z,56.95
2022-11-16T05:05:21.537Z,51.72
2022-11-16T05:05:54.484Z,54.75
2022-11-16T05:06:26.483Z,55.03
2022-11-16T05:06:58.563Z,50.12
2022-11-16T05:07:30.708Z,55.90
2022-11-16T05:08:04.252Z,56.20
2022-11-16T05:08:36.507Z,58.28
2022-11-16T05:09:09.097Z,55.00
2022-11-16T05:09:43.682Z,53.40
2022-11-16T05:10:16.917Z,50.38
2022-11-16T05:10:51.249Z,54.08
2022-11-16T05:11:23.846Z,53.20
2022-11-16T05:11:55.916Z,55.72
2022-11-16T05:12:28.681Z,51.35
2022-11-16T05:13:00.982Z,53.90
2022-11-16T05:13:33.030Z,57.60
2022-11-16T05:14:06.643Z,49.58
2022-11-16T05:14:38.532Z,51.85
2022-11-16T05:15:11.055Z,56.97
2022-11-16T05:15:46.894Z,51.47
2022-11-16T05:16:19.119Z,53.10
2022-11-16T05:16:51.377Z,52.45
2022-11-16T05:17:23.960Z,56.35
2022-11-16T05:17:56.733Z,58.47
2022-11-16T05:18:29.214Z,55.00
2022-11-16T05:19:20.116Z,57.40
2022-11-16T05:20:11.317Z,56.97
2022-11-16T05:21:02.097Z,55.40
2022-11-16T05:21:34.092Z,47.10
2022-11-16T05:22:06.393Z,53.60
2022-11-16T05:22:38.833Z,55.12
2022-11-16T05:23:31.244Z,54.28
2022-11-16T05:24:22.353Z,54.67
2022-11-16T05:24:54.932Z,54.10
2022-11-16T05:25:28.560Z,55.12
2022-11-16T05:26:03.423Z,53.97
2022-11-16T05:26:35.408Z,52.47
2022-11-16T05:27:10.925Z,57.33
2022-11-16T05:27:43.529Z,53.60
2022-11-16T05:28:15.873Z,55.58
2022-11-16T05:28:48.390Z,52.20
2022-11-16T05:29:20.255Z,55.80
2022-11-16T05:29:52.552Z,56.15
2022-11-16T05:30:25.308Z,57.60
2022-11-16T05:30:57.199Z,53.38
2022-11-16T05:31:29.122Z,58.35
2022-11-16T05:32:01.440Z,56.75
2022-11-16T05:32:33.617Z,52.35
2022-11-16T05:33:05.691Z,55.60
2022-11-16T05:33:38.062Z,57.53
2022-11-16T05:34:10.464Z,56.53
2022-11-16T05:34:42.936Z,51.85
2022-11-16T05:35:14.881Z,56.03
2022-11-16T05:35:50.987Z,57.72
2022-11-16T05:36:23.138Z,51.20
2022-11-16T05:36:56.188Z,55.00
2022-11-16T05:37:29.171Z,55.83
2022-11-16T05:38:02.720Z,56.33
2022-11-16T05:38:35.516Z,55.40
2022-11-16T05:39:07.684Z,54.35
2022-11-16T05:39:40.421Z,55.65
2022-11-16T05:40:12.620Z,52.60
2022-11-16T05:40:45.414Z,54.20
2022-11-16T05:41:17.563Z,54.50
2022-11-16T05:41:49.872Z,52.55
2022-11-16T05:42:22.084Z,51.80
2022-11-16T05:42:53.981Z,56.65
2022-11-16T05:43:26.417Z,56.30
2022-11-16T05:44:01.231Z,55.50
2022-11-16T05:44:33.599Z,57.00
2022-11-16T05:45:06.177Z,58.70
2022-11-16T05:45:38.331Z,59.28
2022-11-16T05:46:11.057Z,57.55
2022-11-16T05:46:43.924Z,56.65
2022-11-16T05:47:16.407Z,54.63
2022-11-16T05:47:48.428Z,56.17
2022-11-16T05:48:20.671Z,55.42
2022-11-16T05:48:53.390Z,54.10
2022-11-16T05:49:25.592Z,57.85
2022-11-16T05:49:57.975Z,53.58
2022-11-16T05:50:30.363Z,54.85
2022-11-16T05:51:04.753Z,57.92
2022-11-16T05:51:38.643Z,55.50
2022-11-16T05:52:10.652Z,55.70
2022-11-16T05:52:43.139Z,59.13
2022-11-16T05:53:15.477Z,58.25
2022-11-16T05:53:49.305Z,58.20
2022-11-16T05:54:26.935Z,57.22
2022-11-16T05:54:59.577Z,57.28
2022-11-16T05:55:32.653Z,55.92
2022-11-16T05:56:04.867Z,51.28
2022-11-16T05:56:38.077Z,55.67
2022-11-16T05:57:10.133Z,55.67
2022-11-16T05:57:43.222Z,58.05
2022-11-16T05:58:15.344Z,53.40
2022-11-16T05:58:47.512Z,51.63
2022-11-16T05:59:21.045Z,50.95
2022-11-16T05:59:54.331Z,55.58
2022-11-16T06:00:26.458Z,61.28
2022-11-16T06:00:59.074Z,49.38
2022-11-16T06:01:31.622Z,63.17
2022-11-16T06:02:04.856Z,60.38
2022-11-16T06:02:37.067Z,58.60
2022-11-16T06:03:09.443Z,58.38
2022-11-16T06:03:41.651Z,54.92
2022-11-16T06:04:14.191Z,59.67
2022-11-16T06:04:46.068Z,59.83
2022-11-16T06:05:18.282Z,56.35
2022-11-16T06:05:53.254Z,60.78
2022-11-16T06:06:25.493Z,53.17
2022-11-16T06:06:57.523Z,59.53
2022-11-16T06:07:31.397Z,62.53
2022-11-16T06:08:03.567Z,66.28
2022-11-16T06:08:36.029Z,65.37
2022-11-16T06:09:09.406Z,57.83
2022-11-16T06:09:41.492Z,55.63
2022-11-16T06:10:13.848Z,61.42
2022-11-16T06:10:47.536Z,54.75
2022-11-16T06:11:20.573Z,56.15
2022-11-16T06:11:52.848Z,59.58
2022-11-16T06:12:24.737Z,55.33
2022-11-16T06:12:56.612Z,62.17
2022-11-16T06:13:28.753Z,58.78
2022-11-16T06:14:01.808Z,54.42
2022-11-16T06:14:33.678Z,56.80
2022-11-16T06:15:05.883Z,63.45
2022-11-16T06:15:38.698Z,62.83
2022-11-16T06:16:11.583Z,61.83
2022-11-16T06:16:44.399Z,59.17
2022-11-16T06:17:16.604Z,61.22
2022-11-16T06:17:49.394Z,57.50
2022-11-16T06:18:22.125Z,60.85
2022-11-16T06:18:54.217Z,58.28
2022-11-16T06:19:32.035Z,60.97
2022-11-16T06:20:04.823Z,58.70
2022-11-16T06:20:39.688Z,64.03
2022-11-16T06:21:13.142Z,64.53
2022-11-16T06:21:45.393Z,61.85
2022-11-16T06:22:18.140Z,66.00
2022-11-16T06:22:50.075Z,59.65
2022-11-16T06:23:22.515Z,62.88
2022-11-16T06:23:55.376Z,59.78
2022-11-16T06:24:27.619Z,67.10
2022-11-16T06:24:59.760Z,67.37
2022-11-16T06:25:32.610Z,65.72
2022-11-16T06:26:05.964Z,68.62
2022-11-16T06:26:37.816Z,61.80
2022-11-16T06:27:09.890Z,59.17
2022-11-16T06:27:42.423Z,60.30
2022-11-16T06:28:15.187Z,66.90
2022-11-16T06:28:47.481Z,65.72
2022-11-16T06:29:19.440Z,63.38
2022-11-16T06:29:51.326Z,62.10
2022-11-16T06:30:23.586Z,67.95
2022-11-16T06:30:55.838Z,66.35
2022-11-16T06:31:28.448Z,65.95
2022-11-16T06:32:00.502Z,66.68
2022-11-16T06:32:32.546Z,71.85
2022-11-16T06:33:05.692Z,61.20
2022-11-16T06:33:37.825Z,62.30
2022-11-16T06:34:10.579Z,64.25
2022-11-16T06:34:43.652Z,59.30
2022-11-16T06:35:16.705Z,62.90
2022-11-16T06:35:49.122Z,66.87
2022-11-16T06:36:21.827Z,66.50
2022-11-16T06:36:54.361Z,68.28
2022-11-16T06:37:26.419Z,74.15
2022-11-16T06:37:58.914Z,64.53
2022-11-16T06:38:31.371Z,71.45
2022-11-16T06:39:04.171Z,67.90
2022-11-16T06:39:36.862Z,70.47
2022-11-16T06:40:10.022Z,70.60
2022-11-16T06:40:42.195Z,70.30
2022-11-16T06:41:14.491Z,65.87
2022-11-16T06:41:47.386Z,68.85
2022-11-16T06:42:19.262Z,72.00
2022-11-16T06:42:51.540Z,69.45
2022-11-16T06:43:24.834Z,69.95
2022-11-16T06:43:57.082Z,68.90
2022-11-16T06:44:29.752Z,66.35
2022-11-16T06:45:02.026Z,71.43
2022-11-16T06:45:35.022Z,70.35
2022-11-16T06:46:06.948Z,70.00
2022-11-16T06:46:38.855Z,67.00
2022-11-16T06:47:10.842Z,65.90
2022-11-16T06:47:42.734Z,67.07
2022-11-16T06:48:14.646Z,65.03
2022-11-16T06:48:46.504Z,67.53
2022-11-16T06:49:18.786Z,70.03
2022-11-16T06:49:51.307Z,72.07
2022-11-16T06:50:23.646Z,66.68
2022-11-16T06:50:55.694Z,66.00
2022-11-16T06:51:27.571Z,67.50
2022-11-16T06:51:59.577Z,69.28
2022-11-16T06:52:31.782Z,73.03
2022-11-16T06:53:03.807Z,70.40
2022-11-16T06:53:35.678Z,67.45
2022-11-16T06:54:07.684Z,64.53
2022-11-16T06:54:41.297Z,74.40
2022-11-16T06:55:13.513Z,70.30
2022-11-16T06:55:46.537Z,63.47
2022-11-16T06:56:18.486Z,64.93
2022-11-16T06:56:50.980Z,69.53
2022-11-16T06:57:22.852Z,68.03
2022-11-16T06:57:55.440Z,69.43
2022-11-16T06:58:30.284Z,72.50
2022-11-16T06:59:02.369Z,69.32
2022-11-16T06:59:34.259Z,69.70
2022-11-16T07:00:07.818Z,66.00
2022-11-16T07:00:40.656Z,67.12
2022-11-16T07:01:14.175Z,71.80
2022-11-16T07:01:46.379Z,71.62
2022-11-16T07:02:21.402Z,62.53
2022-11-16T07:02:53.500Z,70.75
2022-11-16T07:03:25.395Z,68.12
2022-11-16T07:03:57.796Z,67.87
2022-11-16T07:04:31.416Z,66.03
2022-11-16T07:05:04.954Z,65.05
2022-11-16T07:05:41.255Z,65.95
2022-11-16T07:06:14.476Z,66.15
2022-11-16T07:06:47.635Z,69.30
2022-11-16T07:07:19.864Z,68.47
2022-11-16T07:07:55.209Z,68.37
2022-11-16T07:08:28.078Z,71.15
2022-11-16T07:08:59.995Z,66.82
2022-11-16T07:09:32.491Z,68.22
2022-11-16T07:10:04.887Z,60.78
2022-11-16T07:10:38.376Z,71.18
2022-11-16T07:11:10.917Z,62.78
2022-11-16T07:11:42.986Z,65.68
2022-11-16T07:12:15.524Z,62.65
2022-11-16T07:12:47.468Z,71.43
2022-11-16T07:13:19.698Z,68.12
2022-11-16T07:13:51.649Z,70.85
2022-11-16T07:14:23.535Z,69.32
2022-11-16T07:14:55.394Z,63.60
2022-11-16T07:15:28.268Z,69.60
2022-11-16T07:16:04.767Z,64.12
2022-11-16T07:16:36.997Z,68.00
2022-11-16T07:17:09.896Z,69.05
2022-11-16T07:17:42.919Z,65.82
2022-11-16T07:18:14.897Z,68.22
2022-11-16T07:18:47.307Z,68.30
2022-11-16T07:19:19.387Z,70.75
2022-11-16T07:19:51.257Z,66.45
2022-11-16T07:20:23.187Z,65.93
2022-11-16T07:20:55.780Z,68.30
2022-11-16T07:21:27.950Z,64.43
2022-11-16T07:22:00.635Z,66.12
2022-11-16T07:22:33.155Z,67.65
2022-11-16T07:23:07.070Z,75.85
2022-11-16T07:23:41.684Z,66.68
2022-11-16T07:24:14.325Z,64.62
2022-11-16T07:24:47.342Z,67.07
2022-11-16T07:25:19.235Z,75.30
2022-11-16T07:25:51.284Z,75.90
2022-11-16T07:26:26.975Z,73.35
2022-11-16T07:26:59.283Z,62.45
2022-11-16T07:27:31.750Z,70.70
2022-11-16T07:28:04.732Z,70.45
2022-11-16T07:28:40.924Z,68.47
2022-11-16T07:29:15.824Z,70.47
2022-11-16T07:29:48.063Z,66.90
2022-11-16T07:30:23.211Z,80.53
2022-11-16T07:30:56.059Z,75.12
2022-11-16T07:31:28.478Z,72.60
2022-11-16T07:32:10.306Z,69.22
2022-11-16T07:32:59.343Z,66.20
2022-11-16T07:33:32.550Z,71.35
2022-11-16T07:34:05.605Z,72.00
2022-11-16T07:34:39.679Z,66.18
2022-11-16T07:35:12.112Z,65.57
2022-11-16T07:35:44.160Z,69.57
2022-11-16T07:36:16.661Z,80.20
2022-11-16T07:36:48.863Z,70.22
2022-11-16T07:37:21.293Z,70.07
2022-11-16T07:37:53.246Z,69.97
2022-11-16T07:38:25.483Z,67.65
2022-11-16T07:38:57.997Z,78.20
2022-11-16T07:39:29.895Z,70.95
2022-11-16T07:40:02.536Z,67.68
2022-11-16T07:40:35.694Z,66.15
2022-11-16T07:41:15.690Z,71.82
2022-11-16T07:41:52.997Z,68.37
2022-11-16T07:42:26.420Z,68.90
2022-11-16T07:43:04.000Z,63.60
2022-11-16T07:43:36.475Z,67.37
2022-11-16T07:44:12.031Z,65.93
2022-11-16T07:44:45.121Z,66.75
2022-11-16T07:45:17.034Z,67.57
2022-11-16T07:45:52.428Z,68.93